createdAt,value
2017-01-26T00:00:43.965Z,1003.88
2017-01-26T00:01:43.994Z,1003.88
2017-01-26T00:02:44.027Z,1003.89
2017-01-26T00:03:44.047Z,1003.92
2017-01-26T00:04:44.071Z,1003.89
2017-01-26T00:05:44.098Z,1003.87
2017-01-26T00:06:44.121Z,1003.82
2017-01-26T00:07:44.146Z,1003.78
2017-01-26T00:08:44.172Z,1003.84
2017-01-26T00:09:44.199Z,1003.83
2017-01-26T00:10:44.224Z,1003.83
2017-01-26T00:11:44.248Z,1003.82
2017-01-26T00:12:44.276Z,1003.76
2017-01-26T00:13:44.302Z,1003.81
2017-01-26T00:14:44.323Z,1003.79
2017-01-26T00:15:44.351Z,1003.76
2017-01-26T00:16:44.376Z,1003.76
2017-01-26T00:17:44.402Z,1003.78
2017-01-26T00:18:44.426Z,1003.75
2017-01-26T00:19:44.450Z,1003.71
2017-01-26T00:20:44.479Z,1003.72
2017-01-26T00:21:44.499Z,1003.73
2017-01-26T00:22:44.524Z,1003.72
2017-01-26T00:23:44.553Z,1003.72
2017-01-26T00:24:44.576Z,1003.7
2017-01-26T00:25:44.607Z,1003.71
2017-01-26T00:26:44.627Z,1003.7
2017-01-26T00:27:44.655Z,1003.64
2017-01-26T00:28:44.680Z,1003.62
2017-01-26T00:29:44.705Z,1003.64
2017-01-26T00:30:44.730Z,1003.66
2017-01-26T00:31:44.755Z,1003.59
2017-01-26T00:32:44.779Z,1003.56
2017-01-26T00:33:44.806Z,1003.6
2017-01-26T00:34:44.829Z,1003.56
2017-01-26T00:35:44.857Z,1003.56
2017-01-26T00:36:44.882Z,1003.58
2017-01-26T00:37:44.906Z,1003.59
2017-01-26T00:38:44.934Z,1003.58
2017-01-26T00:39:44.956Z,1003.61
2017-01-26T00:40:44.981Z,1003.61
2017-01-26T00:41:45.006Z,1003.62
2017-01-26T00:42:45.031Z,1003.64
2017-01-26T00:43:45.056Z,1003.56
2017-01-26T00:44:45.084Z,1003.54
2017-01-26T00:45:45.109Z,1003.6
2017-01-26T00:46:45.137Z,1003.57
2017-01-26T00:47:45.158Z,1003.57
2017-01-26T00:48:45.184Z,1003.62
2017-01-26T00:49:45.208Z,1003.53
2017-01-26T00:50:45.233Z,1003.57
2017-01-26T00:51:45.260Z,1003.53
2017-01-26T00:52:45.286Z,1003.54
2017-01-26T00:53:45.311Z,1003.46
2017-01-26T00:54:45.335Z,1003.51
2017-01-26T00:55:45.363Z,1003.48
2017-01-26T00:56:45.385Z,1003.44
2017-01-26T00:57:45.663Z,1003.44
2017-01-26T00:58:45.434Z,1003.45
2017-01-26T00:59:45.459Z,1003.47
2017-01-26T01:00:45.484Z,1003.51
2017-01-26T01:01:45.512Z,1003.43
2017-01-26T01:02:45.787Z,1003.48
2017-01-26T01:03:45.563Z,1003.48
2017-01-26T01:04:45.580Z,1003.47
2017-01-26T01:05:45.606Z,1003.44
2017-01-26T01:06:45.637Z,1003.47
2017-01-26T01:07:45.913Z,1003.44
2017-01-26T01:08:45.688Z,1003.43
2017-01-26T01:09:45.711Z,1003.45
2017-01-26T01:10:45.736Z,1003.46
2017-01-26T01:11:45.761Z,1003.5
2017-01-26T01:12:46.040Z,1003.51
2017-01-26T01:13:45.810Z,1003.52
2017-01-26T01:14:45.839Z,1003.48
2017-01-26T01:15:45.859Z,1003.52
2017-01-26T01:16:45.887Z,1003.5
2017-01-26T01:17:45.912Z,1003.46
2017-01-26T01:18:45.936Z,1003.46
2017-01-26T01:19:45.962Z,1003.58
2017-01-26T01:20:45.987Z,1003.53
2017-01-26T01:21:46.011Z,1003.47
2017-01-26T01:22:46.037Z,1003.44
2017-01-26T01:23:46.061Z,1003.46
2017-01-26T01:24:46.085Z,1003.47
2017-01-26T01:25:46.120Z,1003.47
2017-01-26T01:26:46.141Z,1003.49
2017-01-26T01:27:46.164Z,1003.53
2017-01-26T01:28:46.188Z,1003.46
2017-01-26T01:29:46.212Z,1003.42
2017-01-26T01:30:46.237Z,1003.43
2017-01-26T01:31:46.263Z,1003.39
2017-01-26T01:32:46.288Z,1003.4
2017-01-26T01:33:46.313Z,1003.41
2017-01-26T01:34:46.341Z,1003.41
2017-01-26T01:35:46.362Z,1003.4
2017-01-26T01:36:46.390Z,1003.36
2017-01-26T01:37:46.412Z,1003.38
2017-01-26T01:38:46.691Z,1003.35
2017-01-26T01:39:46.463Z,1003.38
2017-01-26T01:40:46.488Z,1003.35
2017-01-26T01:41:46.513Z,1003.42
2017-01-26T01:42:46.536Z,1003.37
2017-01-26T01:43:46.814Z,1003.38
2017-01-26T01:44:46.587Z,1003.37
2017-01-26T01:45:46.613Z,1003.38
2017-01-26T01:46:46.641Z,1003.4
2017-01-26T01:47:46.661Z,1003.37
2017-01-26T01:48:46.937Z,1003.34
2017-01-26T01:49:46.711Z,1003.35
2017-01-26T01:50:46.736Z,1003.33
2017-01-26T01:51:46.761Z,1003.31
2017-01-26T01:52:46.789Z,1003.28
2017-01-26T01:53:46.811Z,1003.29
2017-01-26T01:54:46.838Z,1003.27
2017-01-26T01:55:46.863Z,1003.32
2017-01-26T01:56:46.888Z,1003.38
2017-01-26T01:57:46.917Z,1003.32
2017-01-26T01:58:46.936Z,1003.31
2017-01-26T01:59:46.963Z,1003.32
2017-01-26T02:00:46.987Z,1003.22
2017-01-26T02:01:47.012Z,1003.27
2017-01-26T02:02:47.038Z,1003.28
2017-01-26T02:03:47.062Z,1003.23
2017-01-26T02:04:47.085Z,1003.21
2017-01-26T02:05:47.107Z,1003.23
2017-01-26T02:06:47.136Z,1003.27
2017-01-26T02:07:47.162Z,1003.21
2017-01-26T02:08:47.186Z,1003.26
2017-01-26T02:09:47.209Z,1003.23
2017-01-26T02:10:47.234Z,1003.24
2017-01-26T02:11:47.259Z,1003.25
2017-01-26T02:12:47.284Z,1003.23
2017-01-26T02:13:47.308Z,1003.26
2017-01-26T02:14:47.333Z,1003.24
2017-01-26T02:15:47.358Z,1003.21
2017-01-26T02:16:47.383Z,1003.26
2017-01-26T02:17:47.408Z,1003.22
2017-01-26T02:18:47.438Z,1003.28
2017-01-26T02:19:47.709Z,1003.32
2017-01-26T02:20:47.481Z,1003.24
2017-01-26T02:21:47.509Z,1003.23
2017-01-26T02:22:47.528Z,1003.27
2017-01-26T02:23:47.555Z,1003.26
2017-01-26T02:24:47.836Z,1003.25
2017-01-26T02:25:47.605Z,1003.25
2017-01-26T02:26:47.635Z,1003.2
2017-01-26T02:27:47.654Z,1003.21
2017-01-26T02:28:47.684Z,1003.23
2017-01-26T02:29:47.963Z,1003.15
2017-01-26T02:30:47.731Z,1003.12
2017-01-26T02:31:47.757Z,1003.18
2017-01-26T02:32:47.781Z,1003.11
2017-01-26T02:33:47.807Z,1003.11
2017-01-26T02:34:47.832Z,1003.11
2017-01-26T02:35:47.857Z,1003.03
2017-01-26T02:36:47.881Z,1003.06
2017-01-26T02:37:47.905Z,1003.08
2017-01-26T02:38:47.929Z,1003.06
2017-01-26T02:39:47.955Z,1003.01
2017-01-26T02:40:47.979Z,1002.97
2017-01-26T02:41:48.002Z,1003.04
2017-01-26T02:42:48.028Z,1003
2017-01-26T02:43:48.054Z,1003.02
2017-01-26T02:44:48.080Z,1003.02
2017-01-26T02:45:48.109Z,1003.02
2017-01-26T02:46:48.127Z,1002.99
2017-01-26T02:47:48.152Z,1002.95
2017-01-26T02:48:48.181Z,1002.95
2017-01-26T02:49:48.202Z,1002.95
2017-01-26T02:50:48.228Z,1002.98
2017-01-26T02:51:48.252Z,1002.97
2017-01-26T02:52:48.276Z,1002.95
2017-01-26T02:53:48.303Z,1002.97
2017-01-26T02:54:48.328Z,1002.95
2017-01-26T02:55:48.351Z,1002.91
2017-01-26T02:56:48.375Z,1002.96
2017-01-26T02:57:48.400Z,1002.88
2017-01-26T02:58:48.425Z,1002.92
2017-01-26T02:59:48.449Z,1002.87
2017-01-26T03:00:48.474Z,1002.9
2017-01-26T03:01:48.498Z,1002.83
2017-01-26T03:02:48.523Z,1002.88
2017-01-26T03:03:48.543Z,1002.87
2017-01-26T03:04:48.572Z,1002.85
2017-01-26T03:05:48.848Z,1002.85
2017-01-26T03:06:48.621Z,1002.85
2017-01-26T03:07:48.647Z,1002.83
2017-01-26T03:08:48.671Z,1002.9
2017-01-26T03:09:48.695Z,1002.86
2017-01-26T03:10:48.971Z,1002.86
2017-01-26T03:11:48.745Z,1002.83
2017-01-26T03:12:48.770Z,1002.79
2017-01-26T03:13:48.794Z,1002.86
2017-01-26T03:14:48.818Z,1002.83
2017-01-26T03:15:48.847Z,1002.84
2017-01-26T03:16:48.868Z,1002.79
2017-01-26T03:17:48.896Z,1002.79
2017-01-26T03:18:48.918Z,1002.79
2017-01-26T03:19:48.942Z,1002.8
2017-01-26T03:20:48.966Z,1002.78
2017-01-26T03:21:48.988Z,1002.76
2017-01-26T03:22:49.019Z,1002.74
2017-01-26T03:23:49.041Z,1002.74
2017-01-26T03:24:49.065Z,1002.76
2017-01-26T03:25:49.090Z,1002.76
2017-01-26T03:26:49.115Z,1002.68
2017-01-26T03:27:49.141Z,1002.69
2017-01-26T03:28:49.169Z,1002.65
2017-01-26T03:29:49.188Z,1002.65
2017-01-26T03:30:49.213Z,1002.67
2017-01-26T03:31:49.238Z,1002.66
2017-01-26T03:32:49.259Z,1002.7
2017-01-26T03:33:49.288Z,1002.68
2017-01-26T03:34:49.312Z,1002.65
2017-01-26T03:35:49.337Z,1002.65
2017-01-26T03:36:49.361Z,1002.65
2017-01-26T03:37:49.387Z,1002.62
2017-01-26T03:38:49.407Z,1002.62
2017-01-26T03:39:49.436Z,1002.61
2017-01-26T03:40:49.460Z,1002.58
2017-01-26T03:41:49.732Z,1002.64
2017-01-26T03:42:49.510Z,1002.63
2017-01-26T03:43:49.535Z,1002.63
2017-01-26T03:44:49.559Z,1002.59
2017-01-26T03:45:49.584Z,1002.61
2017-01-26T03:46:49.857Z,1002.56
2017-01-26T03:47:49.633Z,1002.57
2017-01-26T03:48:49.656Z,1002.57
2017-01-26T03:49:49.683Z,1002.58
2017-01-26T03:50:49.708Z,1002.52
2017-01-26T03:51:49.983Z,1002.52
2017-01-26T03:52:49.757Z,1002.52
2017-01-26T03:53:49.781Z,1002.49
2017-01-26T03:54:49.827Z,1002.47
2017-01-26T03:55:49.830Z,1002.51
2017-01-26T03:56:49.851Z,1002.43
2017-01-26T03:57:49.880Z,1002.47
2017-01-26T03:58:49.905Z,1002.44
2017-01-26T03:59:49.928Z,1002.41
2017-01-26T04:00:49.955Z,1002.41
2017-01-26T04:01:49.971Z,1002.48
2017-01-26T04:02:50.003Z,1002.46
2017-01-26T04:03:50.027Z,1002.47
2017-01-26T04:04:50.052Z,1002.49
2017-01-26T04:05:50.074Z,1002.43
2017-01-26T04:06:50.094Z,1002.43
2017-01-26T04:07:50.123Z,1002.46
2017-01-26T04:08:50.148Z,1002.45
2017-01-26T04:09:50.171Z,1002.51
2017-01-26T04:10:50.196Z,1002.5
2017-01-26T04:11:50.221Z,1002.51
2017-01-26T04:12:50.497Z,1002.52
2017-01-26T04:13:50.267Z,1002.56
2017-01-26T04:14:50.298Z,1002.52
2017-01-26T04:15:50.320Z,1002.5
2017-01-26T04:16:50.345Z,1002.51
2017-01-26T04:17:50.621Z,1002.49
2017-01-26T04:18:50.394Z,1002.49
2017-01-26T04:19:50.419Z,1002.5
2017-01-26T04:20:50.448Z,1002.46
2017-01-26T04:21:50.467Z,1002.45
2017-01-26T04:22:50.741Z,1002.5
2017-01-26T04:23:50.517Z,1002.49
2017-01-26T04:24:50.542Z,1002.49
2017-01-26T04:25:50.566Z,1002.52
2017-01-26T04:26:50.592Z,1002.55
2017-01-26T04:27:50.874Z,1002.57
2017-01-26T04:28:50.641Z,1002.56
2017-01-26T04:29:50.668Z,1002.53
2017-01-26T04:30:50.686Z,1002.55
2017-01-26T04:31:50.717Z,1002.56
2017-01-26T04:32:51.018Z,1002.53
2017-01-26T04:33:50.764Z,1002.53
2017-01-26T04:34:50.785Z,1002.45
2017-01-26T04:35:50.809Z,1002.45
2017-01-26T04:36:50.835Z,1002.43
2017-01-26T04:37:50.864Z,1002.45
2017-01-26T04:38:50.888Z,1002.45
2017-01-26T04:39:50.912Z,1002.44
2017-01-26T04:40:50.942Z,1002.48
2017-01-26T04:41:50.962Z,1002.44
2017-01-26T04:42:50.977Z,1002.42
2017-01-26T04:43:51.007Z,1002.42
2017-01-26T04:44:51.040Z,1002.44
2017-01-26T04:45:51.059Z,1002.41
2017-01-26T04:46:51.081Z,1002.41
2017-01-26T04:47:51.107Z,1002.43
2017-01-26T04:48:51.130Z,1002.42
2017-01-26T04:49:51.155Z,1002.37
2017-01-26T04:50:51.182Z,1002.4
2017-01-26T04:51:51.206Z,1002.41
2017-01-26T04:52:51.229Z,1002.35
2017-01-26T04:53:51.255Z,1002.38
2017-01-26T04:54:51.276Z,1002.37
2017-01-26T04:55:51.304Z,1002.31
2017-01-26T04:56:51.331Z,1002.35
2017-01-26T04:57:51.357Z,1002.32
2017-01-26T04:58:51.383Z,1002.29
2017-01-26T04:59:51.404Z,1002.29
2017-01-26T05:00:51.429Z,1002.29
2017-01-26T05:01:51.452Z,1002.31
2017-01-26T05:02:51.479Z,1002.25
2017-01-26T05:03:51.497Z,1002.31
2017-01-26T05:04:51.520Z,1002.28
2017-01-26T05:05:51.552Z,1002.28
2017-01-26T05:06:51.576Z,1002.25
2017-01-26T05:07:51.598Z,1002.26
2017-01-26T05:08:51.878Z,1002.26
2017-01-26T05:09:51.647Z,1002.25
2017-01-26T05:10:51.670Z,1002.29
2017-01-26T05:11:51.699Z,1002.27
2017-01-26T05:12:51.721Z,1002.3
2017-01-26T05:13:51.997Z,1002.22
2017-01-26T05:14:51.771Z,1002.24
2017-01-26T05:15:51.795Z,1002.29
2017-01-26T05:16:51.821Z,1002.24
2017-01-26T05:17:51.844Z,1002.22
2017-01-26T05:18:51.871Z,1002.21
2017-01-26T05:19:51.895Z,1002.19
2017-01-26T05:20:51.918Z,1002.19
2017-01-26T05:21:51.943Z,1002.2
2017-01-26T05:22:51.968Z,1002.21
2017-01-26T05:23:51.989Z,1002.23
2017-01-26T05:24:52.017Z,1002.21
2017-01-26T05:25:52.038Z,1002.21
2017-01-26T05:26:52.063Z,1002.19
2017-01-26T05:27:52.087Z,1002.14
2017-01-26T05:28:52.113Z,1002.17
2017-01-26T05:29:52.389Z,1002.17
2017-01-26T05:30:52.161Z,1002.16
2017-01-26T05:31:52.188Z,1002.14
2017-01-26T05:32:52.212Z,1002.08
2017-01-26T05:33:52.236Z,1002.16
2017-01-26T05:34:52.513Z,1002.16
2017-01-26T05:35:52.286Z,1002.17
2017-01-26T05:36:52.311Z,1002.21
2017-01-26T05:37:52.335Z,1002.26
2017-01-26T05:38:52.358Z,1002.27
2017-01-26T05:39:52.384Z,1002.19
2017-01-26T05:40:52.410Z,1002.26
2017-01-26T05:41:52.431Z,1002.27
2017-01-26T05:42:52.459Z,1002.23
2017-01-26T05:43:52.484Z,1002.23
2017-01-26T05:44:52.508Z,1002.24
2017-01-26T05:45:52.533Z,1002.24
2017-01-26T05:46:52.559Z,1002.25
2017-01-26T05:47:52.583Z,1002.3
2017-01-26T05:48:52.609Z,1002.22
2017-01-26T05:49:52.632Z,1002.23
2017-01-26T05:50:52.657Z,1002.25
2017-01-26T05:51:52.683Z,1002.18
2017-01-26T05:52:52.704Z,1002.23
2017-01-26T05:53:52.731Z,1002.18
2017-01-26T05:54:52.756Z,1002.16
2017-01-26T05:55:53.038Z,1002.12
2017-01-26T05:56:52.805Z,1002.2
2017-01-26T05:57:52.829Z,1002.1
2017-01-26T05:58:52.851Z,1002.11
2017-01-26T05:59:52.880Z,1002.13
2017-01-26T06:00:52.905Z,1002.12
2017-01-26T06:01:52.928Z,1002.11
2017-01-26T06:02:52.950Z,1002.09
2017-01-26T06:03:52.980Z,1002.1
2017-01-26T06:04:53.004Z,1002.09
2017-01-26T06:05:53.028Z,1002.08
2017-01-26T06:06:53.053Z,1002.02
2017-01-26T06:07:53.080Z,1002.1
2017-01-26T06:08:53.102Z,1002.07
2017-01-26T06:09:53.127Z,1002.03
2017-01-26T06:10:53.151Z,1002.05
2017-01-26T06:11:53.177Z,1002.04
2017-01-26T06:12:53.202Z,1002.02
2017-01-26T06:13:53.226Z,1002.06
2017-01-26T06:14:53.251Z,1002.06
2017-01-26T06:15:53.275Z,1002.03
2017-01-26T06:16:53.300Z,1002.01
2017-01-26T06:17:53.324Z,1002
2017-01-26T06:18:53.354Z,1002.02
2017-01-26T06:19:53.375Z,1002
2017-01-26T06:20:53.399Z,1002.02
2017-01-26T06:21:53.425Z,1002.02
2017-01-26T06:22:53.450Z,1001.97
2017-01-26T06:23:53.473Z,1001.96
2017-01-26T06:24:53.499Z,1002
2017-01-26T06:25:53.524Z,1002.02
2017-01-26T06:26:53.555Z,1002.03
2017-01-26T06:27:53.573Z,1001.92
2017-01-26T06:28:53.597Z,1001.97
2017-01-26T06:29:53.631Z,1001.95
2017-01-26T06:30:53.647Z,1001.98
2017-01-26T06:31:53.677Z,1001.93
2017-01-26T06:32:53.700Z,1001.91
2017-01-26T06:33:53.721Z,1001.93
2017-01-26T06:34:53.749Z,1001.94
2017-01-26T06:35:53.775Z,1001.93
2017-01-26T06:36:53.800Z,1001.94
2017-01-26T06:37:53.823Z,1001.9
2017-01-26T06:38:53.848Z,1001.89
2017-01-26T06:39:53.873Z,1001.83
2017-01-26T06:40:53.902Z,1001.87
2017-01-26T06:41:53.924Z,1001.88
2017-01-26T06:42:53.947Z,1001.81
2017-01-26T06:43:53.972Z,1001.85
2017-01-26T06:44:53.998Z,1001.82
2017-01-26T06:45:54.022Z,1001.86
2017-01-26T06:46:54.047Z,1001.78
2017-01-26T06:47:54.071Z,1001.84
2017-01-26T06:48:54.104Z,1001.85
2017-01-26T06:49:54.120Z,1001.83
2017-01-26T06:50:54.146Z,1001.84
2017-01-26T06:51:54.170Z,1001.77
2017-01-26T06:52:54.199Z,1001.82
2017-01-26T06:53:54.220Z,1001.85
2017-01-26T06:54:54.251Z,1001.82
2017-01-26T06:55:54.273Z,1001.77
2017-01-26T06:56:54.299Z,1001.82
2017-01-26T06:57:54.323Z,1001.83
2017-01-26T06:58:54.347Z,1001.78
2017-01-26T06:59:54.372Z,1001.78
2017-01-26T07:00:54.398Z,1001.8
2017-01-26T07:01:54.422Z,1001.81
2017-01-26T07:02:54.447Z,1001.78
2017-01-26T07:03:54.476Z,1001.78
2017-01-26T07:04:54.496Z,1001.77
2017-01-26T07:05:54.525Z,1001.79
2017-01-26T07:06:54.548Z,1001.7
2017-01-26T07:07:54.574Z,1001.8
2017-01-26T07:08:54.601Z,1001.73
2017-01-26T07:09:54.627Z,1001.74
2017-01-26T07:10:54.649Z,1001.77
2017-01-26T07:11:54.675Z,1001.76
2017-01-26T07:12:54.698Z,1001.75
2017-01-26T07:13:54.718Z,1001.73
2017-01-26T07:14:54.752Z,1001.7
2017-01-26T07:15:54.769Z,1001.74
2017-01-26T07:16:54.800Z,1001.73
2017-01-26T07:17:54.839Z,1001.73
2017-01-26T07:18:54.850Z,1001.68
2017-01-26T07:19:54.871Z,1001.69
2017-01-26T07:20:54.900Z,1001.7
2017-01-26T07:21:54.924Z,1001.71
2017-01-26T07:22:54.945Z,1001.77
2017-01-26T07:23:54.975Z,1001.75
2017-01-26T07:24:54.998Z,1001.78
2017-01-26T07:25:55.027Z,1001.75
2017-01-26T07:26:55.300Z,1001.76
2017-01-26T07:27:55.077Z,1001.8
2017-01-26T07:28:55.105Z,1001.72
2017-01-26T07:29:55.127Z,1001.73
2017-01-26T07:30:55.147Z,1001.74
2017-01-26T07:31:55.426Z,1001.77
2017-01-26T07:32:55.201Z,1001.77
2017-01-26T07:33:55.225Z,1001.8
2017-01-26T07:34:55.251Z,1001.76
2017-01-26T07:35:55.278Z,1001.75
2017-01-26T07:36:55.557Z,1001.78
2017-01-26T07:37:55.327Z,1001.78
2017-01-26T07:38:55.352Z,1001.78
2017-01-26T07:39:55.378Z,1001.81
2017-01-26T07:40:55.401Z,1001.72
2017-01-26T07:41:55.679Z,1001.75
2017-01-26T07:42:55.452Z,1001.78
2017-01-26T07:43:55.476Z,1001.77
2017-01-26T07:44:55.501Z,1001.82
2017-01-26T07:45:55.529Z,1001.82
2017-01-26T07:46:55.803Z,1001.79
2017-01-26T07:47:55.576Z,1001.86
2017-01-26T07:48:55.604Z,1001.8
2017-01-26T07:49:55.628Z,1001.81
2017-01-26T07:50:55.654Z,1001.78
2017-01-26T07:51:55.954Z,1001.78
2017-01-26T07:52:55.708Z,1001.76
2017-01-26T07:53:55.727Z,1001.82
2017-01-26T07:54:55.757Z,1001.8
2017-01-26T07:55:55.782Z,1001.75
2017-01-26T07:56:56.057Z,1001.79
2017-01-26T07:57:55.831Z,1001.82
2017-01-26T07:58:55.856Z,1001.8
2017-01-26T07:59:55.879Z,1001.75
2017-01-26T08:00:55.908Z,1001.75
2017-01-26T08:01:55.934Z,1001.78
2017-01-26T08:02:55.960Z,1001.78
2017-01-26T08:03:55.984Z,1001.8
2017-01-26T08:04:56.007Z,1001.76
2017-01-26T08:05:56.032Z,1001.74
2017-01-26T08:06:56.057Z,1001.77
2017-01-26T08:07:56.084Z,1001.75
2017-01-26T08:08:56.106Z,1001.77
2017-01-26T08:09:56.130Z,1001.73
2017-01-26T08:10:56.155Z,1001.78
2017-01-26T08:11:56.185Z,1001.75
2017-01-26T08:12:56.209Z,1001.72
2017-01-26T08:13:56.235Z,1001.73
2017-01-26T08:14:56.255Z,1001.74
2017-01-26T08:15:56.285Z,1001.75
2017-01-26T08:16:56.308Z,1001.73
2017-01-26T08:17:56.334Z,1001.7
2017-01-26T08:18:56.361Z,1001.7
2017-01-26T08:19:56.390Z,1001.76
2017-01-26T08:20:56.434Z,1001.76
2017-01-26T08:21:56.436Z,1001.73
2017-01-26T08:22:56.456Z,1001.74
2017-01-26T08:23:56.486Z,1001.73
2017-01-26T08:24:56.528Z,1001.71
2017-01-26T08:25:56.539Z,1001.71
2017-01-26T08:26:56.556Z,1001.67
2017-01-26T08:27:56.585Z,1001.7
2017-01-26T08:28:56.609Z,1001.67
2017-01-26T08:29:56.637Z,1001.68
2017-01-26T08:30:56.663Z,1001.6
2017-01-26T08:31:56.687Z,1001.68
2017-01-26T08:32:56.711Z,1001.69
2017-01-26T08:33:56.736Z,1001.72
2017-01-26T08:34:56.764Z,1001.67
2017-01-26T08:35:56.785Z,1001.68
2017-01-26T08:36:56.811Z,1001.64
2017-01-26T08:37:56.835Z,1001.65
2017-01-26T08:38:56.859Z,1001.61
2017-01-26T08:39:56.885Z,1001.66
2017-01-26T08:40:56.913Z,1001.65
2017-01-26T08:41:56.938Z,1001.61
2017-01-26T08:42:56.960Z,1001.62
2017-01-26T08:43:56.987Z,1001.6
2017-01-26T08:44:57.012Z,1001.64
2017-01-26T08:45:57.037Z,1001.63
2017-01-26T08:46:57.062Z,1001.65
2017-01-26T08:47:57.114Z,1001.57
2017-01-26T08:48:57.111Z,1001.55
2017-01-26T08:49:57.136Z,1001.57
2017-01-26T08:50:57.156Z,1001.62
2017-01-26T08:51:57.187Z,1001.6
2017-01-26T08:52:57.465Z,1001.59
2017-01-26T08:53:57.235Z,1001.55
2017-01-26T08:54:57.265Z,1001.57
2017-01-26T08:55:57.288Z,1001.58
2017-01-26T08:56:57.313Z,1001.54
2017-01-26T08:57:57.589Z,1001.55
2017-01-26T08:58:57.362Z,1001.55
2017-01-26T08:59:57.387Z,1001.62
2017-01-26T09:00:57.412Z,1001.63
2017-01-26T09:01:57.432Z,1001.65
2017-01-26T09:02:57.712Z,1001.5
2017-01-26T09:03:57.485Z,1001.59
2017-01-26T09:04:57.511Z,1001.58
2017-01-26T09:05:57.535Z,1001.56
2017-01-26T09:06:57.560Z,1001.55
2017-01-26T09:07:57.839Z,1001.59
2017-01-26T09:08:57.613Z,1001.64
2017-01-26T09:09:57.638Z,1001.6
2017-01-26T09:10:57.663Z,1001.59
2017-01-26T09:11:57.684Z,1001.58
2017-01-26T09:12:57.964Z,1001.54
2017-01-26T09:13:57.737Z,1001.55
2017-01-26T09:14:57.761Z,1001.54
2017-01-26T09:15:57.787Z,1001.53
2017-01-26T09:16:57.811Z,1001.57
2017-01-26T09:17:58.087Z,1001.55
2017-01-26T09:18:57.860Z,1001.51
2017-01-26T09:19:57.885Z,1001.55
2017-01-26T09:20:57.909Z,1001.51
2017-01-26T09:21:57.935Z,1001.59
2017-01-26T09:22:57.959Z,1001.54
2017-01-26T09:23:57.988Z,1001.53
2017-01-26T09:24:58.013Z,1001.45
2017-01-26T09:25:58.036Z,1001.45
2017-01-26T09:26:58.078Z,1001.51
2017-01-26T09:27:58.086Z,1001.45
2017-01-26T09:28:58.112Z,1001.46
2017-01-26T09:29:58.140Z,1001.46
2017-01-26T09:30:58.156Z,1001.45
2017-01-26T09:31:58.185Z,1001.46
2017-01-26T09:32:58.211Z,1001.44
2017-01-26T09:33:58.234Z,1001.44
2017-01-26T09:34:58.258Z,1001.44
2017-01-26T09:35:58.284Z,1001.45
2017-01-26T09:36:58.312Z,1001.46
2017-01-26T09:37:58.332Z,1001.45
2017-01-26T09:38:58.361Z,1001.42
2017-01-26T09:39:58.383Z,1001.42
2017-01-26T09:40:58.408Z,1001.42
2017-01-26T09:41:58.436Z,1001.43
2017-01-26T09:42:58.461Z,1001.47
2017-01-26T09:43:58.485Z,1001.48
2017-01-26T09:44:58.510Z,1001.4
2017-01-26T09:45:58.534Z,1001.48
2017-01-26T09:46:58.560Z,1001.42
2017-01-26T09:47:58.581Z,1001.45
2017-01-26T09:48:58.860Z,1001.49
2017-01-26T09:49:58.634Z,1001.43
2017-01-26T09:50:58.658Z,1001.43
2017-01-26T09:51:58.683Z,1001.36
2017-01-26T09:52:58.730Z,1001.39
2017-01-26T09:53:58.989Z,1001.41
2017-01-26T09:54:58.757Z,1001.4
2017-01-26T09:55:58.783Z,1001.41
2017-01-26T09:56:58.806Z,1001.42
2017-01-26T09:57:58.837Z,1001.48
2017-01-26T09:58:59.111Z,1001.42
2017-01-26T09:59:58.884Z,1001.4
2017-01-26T10:00:58.906Z,1001.43
2017-01-26T10:01:58.933Z,1001.47
2017-01-26T10:02:58.960Z,1001.43
2017-01-26T10:03:58.980Z,1001.46
2017-01-26T10:04:59.008Z,1001.43
2017-01-26T10:05:59.032Z,1001.4
2017-01-26T10:06:59.057Z,1001.44
2017-01-26T10:07:59.082Z,1001.41
2017-01-26T10:08:59.105Z,1001.39
2017-01-26T10:09:59.132Z,1001.4
2017-01-26T10:10:59.152Z,1001.41
2017-01-26T10:11:59.179Z,1001.4
2017-01-26T10:12:59.205Z,1001.35
2017-01-26T10:13:59.230Z,1001.4
2017-01-26T10:14:59.254Z,1001.37
2017-01-26T10:15:59.279Z,1001.4
2017-01-26T10:16:59.303Z,1001.4
2017-01-26T10:17:59.328Z,1001.36
2017-01-26T10:18:59.353Z,1001.45
2017-01-26T10:19:59.381Z,1001.37
2017-01-26T10:20:59.406Z,1001.42
2017-01-26T10:21:59.431Z,1001.36
2017-01-26T10:22:59.456Z,1001.33
2017-01-26T10:23:59.480Z,1001.27
2017-01-26T10:24:59.505Z,1001.3
2017-01-26T10:25:59.530Z,1001.32
2017-01-26T10:26:59.553Z,1001.28
2017-01-26T10:27:59.604Z,1001.28
2017-01-26T10:28:59.604Z,1001.27
2017-01-26T10:29:59.630Z,1001.32
2017-01-26T10:30:59.652Z,1001.28
2017-01-26T10:31:59.677Z,1001.28
2017-01-26T10:32:59.702Z,1001.24
2017-01-26T10:33:59.723Z,1001.23
2017-01-26T10:35:00.051Z,1001.21
2017-01-26T10:35:59.777Z,1001.2
2017-01-26T10:36:59.811Z,1001.19
2017-01-26T10:37:59.825Z,1001.19
2017-01-26T10:38:59.851Z,1001.12
2017-01-26T10:40:00.126Z,1001.17
2017-01-26T10:40:59.899Z,1001.12
2017-01-26T10:41:59.925Z,1001.13
2017-01-26T10:42:59.954Z,1001.13
2017-01-26T10:43:59.974Z,1001.11
2017-01-26T10:44:59.998Z,1001.11
2017-01-26T10:46:00.018Z,1001.08
2017-01-26T10:47:00.052Z,1001.09
2017-01-26T10:48:00.068Z,1001.05
2017-01-26T10:49:00.100Z,1001.04
2017-01-26T10:50:00.126Z,1001.05
2017-01-26T10:51:00.146Z,1001
2017-01-26T10:52:00.174Z,1001.06
2017-01-26T10:53:00.200Z,1001.03
2017-01-26T10:54:00.224Z,1001.01
2017-01-26T10:55:00.250Z,1001.04
2017-01-26T10:56:00.270Z,1001.04
2017-01-26T10:57:00.293Z,1001
2017-01-26T10:58:00.323Z,1001.05
2017-01-26T10:59:00.348Z,1000.99
2017-01-26T11:00:00.375Z,1000.95
2017-01-26T11:01:00.397Z,1000.95
2017-01-26T11:02:00.422Z,1000.9
2017-01-26T11:03:00.446Z,1000.94
2017-01-26T11:04:00.471Z,1000.91
2017-01-26T11:05:00.496Z,1000.86
2017-01-26T11:06:00.521Z,1000.84
2017-01-26T11:07:00.544Z,1000.78
2017-01-26T11:08:00.574Z,1000.83
2017-01-26T11:09:00.617Z,1000.81
2017-01-26T11:10:00.625Z,1000.83
2017-01-26T11:11:00.648Z,1000.8
2017-01-26T11:12:00.672Z,1000.77
2017-01-26T11:13:00.697Z,1000.71
2017-01-26T11:14:00.722Z,1000.73
2017-01-26T11:15:00.746Z,1000.68
2017-01-26T11:16:00.771Z,1000.64
2017-01-26T11:17:00.796Z,1000.68
2017-01-26T11:18:00.821Z,1000.68
2017-01-26T11:19:00.841Z,1000.67
2017-01-26T11:20:00.870Z,1000.67
2017-01-26T11:21:00.895Z,1000.64
2017-01-26T11:22:00.921Z,1000.63
2017-01-26T11:23:00.945Z,1000.65
2017-01-26T11:24:00.974Z,1000.6
2017-01-26T11:25:00.994Z,1000.59
2017-01-26T11:26:01.014Z,1000.61
2017-01-26T11:27:01.045Z,1000.61
2017-01-26T11:28:01.068Z,1000.59
2017-01-26T11:29:01.093Z,1000.58
2017-01-26T11:30:01.120Z,1000.58
2017-01-26T11:31:01.142Z,1000.6
2017-01-26T11:32:01.171Z,1000.55
2017-01-26T11:33:01.197Z,1000.51
2017-01-26T11:34:01.221Z,1000.53
2017-01-26T11:35:01.245Z,1000.53
2017-01-26T11:36:01.523Z,1000.48
2017-01-26T11:37:01.295Z,1000.51
2017-01-26T11:38:01.321Z,1000.46
2017-01-26T11:39:23.290Z,1000.5
2017-01-26T11:40:01.372Z,1000.49
2017-01-26T11:41:01.645Z,1000.47
2017-01-26T11:42:01.416Z,1000.47
2017-01-26T11:43:01.445Z,1000.47
2017-01-26T11:44:01.468Z,1000.4
2017-01-26T11:45:01.493Z,1000.46
2017-01-26T11:46:01.770Z,1000.42
2017-01-26T11:47:01.542Z,1000.43
2017-01-26T11:48:01.567Z,1000.42
2017-01-26T11:49:01.595Z,1000.4
2017-01-26T11:50:01.616Z,1000.42
2017-01-26T11:51:01.896Z,1000.37
2017-01-26T11:52:01.671Z,1000.36
2017-01-26T11:53:01.695Z,1000.35
2017-01-26T11:54:01.720Z,1000.33
2017-01-26T11:55:01.745Z,1000.31
2017-01-26T11:56:02.019Z,1000.27
2017-01-26T11:57:01.793Z,1000.3
2017-01-26T11:58:01.823Z,1000.3
2017-01-26T11:59:01.843Z,1000.24
2017-01-26T12:00:01.867Z,1000.29
2017-01-26T12:01:02.143Z,1000.31
2017-01-26T12:02:01.919Z,1000.29
2017-01-26T12:03:01.943Z,1000.29
2017-01-26T12:04:01.967Z,1000.28
2017-01-26T12:05:01.992Z,1000.23
2017-01-26T12:06:02.012Z,1000.26
2017-01-26T12:07:02.044Z,1000.25
2017-01-26T12:08:02.065Z,1000.24
2017-01-26T12:09:02.093Z,1000.22